| time (UTC) | temp F | wind direction | speed MPH | gust MPH | rain 1hr in | rain 24hr in | rain mn in | humidity % | barometer mb |
| 20260505193106 | 66 | 202 | 2.0 | 10.0 | 0.00 | 0.00 | 0.00 | 66 | 1014.7 |
| 20260505192600 | 66 | 165 | 3.0 | 10.0 | 0.00 | 0.00 | 0.00 | 67 | 1014.7 |
| 20260505192057 | 65 | 122 | 6.0 | 10.0 | 0.00 | 0.00 | 0.00 | 67 | 1014.6 |
| 20260505191608 | 65 | 220 | 3.0 | 7.0 | 0.00 | 0.00 | 0.00 | 68 | 1014.7 |
| 20260505191056 | 65 | 222 | 3.0 | 9.0 | 0.00 | 0.00 | 0.00 | 67 | 1014.7 |
| 20260505190556 | 65 | 217 | 4.0 | 10.0 | 0.00 | 0.00 | 0.00 | 68 | 1014.8 |
| 20260505190055 | 65 | 164 | 5.0 | 10.0 | 0.00 | 0.00 | 0.00 | 68 | 1014.8 |
| 20260505185554 | 65 | 182 | 4.0 | 9.0 | 0.00 | 0.00 | 0.00 | 68 | 1014.8 |
| 20260505185053 | 65 | 225 | 4.0 | 9.0 | 0.00 | 0.00 | 0.00 | 68 | 1014.9 |
| 20260505184552 | 65 | 170 | 5.0 | 9.0 | 0.00 | 0.00 | 0.00 | 69 | 1014.8 |
| 20260505184051 | 64 | 92 | 4.0 | 9.0 | 0.00 | 0.00 | 0.00 | 70 | 1014.8 |
| 20260505183550 | 64 | 196 | 5.0 | 11.0 | 0.00 | 0.00 | 0.00 | 70 | 1014.8 |
| 20260505183050 | 64 | 183 | 4.0 | 11.0 | 0.00 | 0.00 | 0.00 | 70 | 1014.7 |
| 20260505182548 | 63 | 168 | 6.0 | 11.0 | 0.00 | 0.00 | 0.00 | 71 | 1014.7 |
| 20260505182047 | 63 | 217 | 4.0 | 10.0 | 0.00 | 0.00 | 0.00 | 71 | 1014.7 |
| 20260505181554 | 63 | 217 | 4.0 | 10.0 | 0.00 | 0.00 | 0.00 | 72 | 1014.7 |
| 20260505181043 | 63 | 228 | 3.0 | 9.0 | 0.00 | 0.00 | 0.00 | 73 | 1014.7 |
| 20260505180543 | 63 | 207 | 4.0 | 11.0 | 0.00 | 0.00 | 0.00 | 73 | 1014.7 |
| 20260505180043 | 62 | 111 | 4.0 | 11.0 | 0.00 | 0.00 | 0.00 | 73 | 1014.6 |
| 20260505175542 | 62 | 293 | 3.0 | 10.0 | 0.00 | 0.00 | 0.00 | 74 | 1014.7 |
| 20260505175041 | 62 | 220 | 3.0 | 10.0 | 0.00 | 0.00 | 0.00 | 74 | 1014.7 |
| 20260505174541 | 62 | 193 | 4.0 | 8.0 | 0.00 | 0.00 | 0.00 | 74 | 1014.6 |
| 20260505174040 | 62 | 245 | 3.0 | 9.0 | 0.00 | 0.00 | 0.00 | 75 | 1014.6 |
| 20260505173538 | 61 | 199 | 2.0 | 8.0 | 0.00 | 0.00 | 0.00 | 74 | 1014.6 |
| 20260505173037 | 61 | 184 | 4.0 | 9.0 | 0.00 | 0.00 | 0.00 | 75 | 1014.6 |
| 20260505172536 | 61 | 227 | 4.0 | 9.0 | 0.00 | 0.00 | 0.00 | 74 | 1014.6 |
| 20260505172038 | 61 | 220 | 5.0 | 9.0 | 0.00 | 0.00 | 0.00 | 75 | 1014.6 |
| 20260505171533 | 61 | 226 | 5.0 | 9.0 | 0.00 | 0.00 | 0.00 | 75 | 1014.6 |
| 20260505171031 | 61 | 214 | 5.0 | 8.0 | 0.00 | 0.00 | 0.00 | 74 | 1014.6 |
| 20260505170531 | 61 | 227 | 3.0 | 8.0 | 0.00 | 0.00 | 0.00 | 74 | 1014.6 |
| 20260505170031 | 61 | 197 | 4.0 | 10.0 | 0.00 | 0.00 | 0.00 | 73 | 1014.6 |
| 20260505165527 | 61 | 210 | 5.0 | 10.0 | 0.00 | 0.00 | 0.00 | 73 | 1014.6 |
| 20260505165029 | 61 | 220 | 2.0 | 9.0 | 0.00 | 0.00 | 0.00 | 73 | 1014.6 |
| 20260505164526 | 61 | 201 | 4.0 | 9.0 | 0.00 | 0.00 | 0.00 | 73 | 1014.5 |
| 20260505164024 | 61 | 192 | 5.0 | 8.0 | 0.00 | 0.00 | 0.00 | 73 | 1014.5 |
| 20260505163523 | 61 | 195 | 3.0 | 7.0 | 0.00 | 0.00 | 0.00 | 73 | 1014.5 |
| 20260505163021 | 61 | 201 | 2.0 | 8.0 | 0.00 | 0.00 | 0.00 | 73 | 1014.5 |
| 20260505162528 | 61 | 141 | 5.0 | 9.0 | 0.00 | 0.00 | 0.00 | 72 | 1014.5 |
| 20260505162018 | 61 | 197 | 6.0 | 9.0 | 0.00 | 0.00 | 0.00 | 72 | 1014.4 |
| 20260505161534 | 61 | 184 | 4.0 | 8.0 | 0.00 | 0.00 | 0.00 | 73 | 1014.4 |
| 20260505161016 | 61 | 197 | 4.0 | 8.0 | 0.00 | 0.00 | 0.00 | 73 | 1014.4 |
| 20260505160518 | 61 | 212 | 4.0 | 7.0 | 0.00 | 0.00 | 0.00 | 73 | 1014.4 |
| 20260505153006 | 60 | 179 | 5.0 | 10.0 | 0.00 | 0.00 | 0.00 | 75 | 1014.2 |
| 20260505152503 | 60 | 222 | 3.0 | 7.0 | 0.00 | 0.00 | 0.00 | 75 | 1014.2 |
| 20260505152001 | 60 | 139 | 4.0 | 9.0 | 0.00 | 0.00 | 0.00 | 76 | 1014.1 |
| 20260505151559 | 59 | 210 | 2.0 | 9.0 | 0.00 | 0.00 | 0.00 | 76 | 1014.0 |
| 20260505151057 | 59 | 174 | 4.0 | 8.0 | 0.00 | 0.00 | 0.00 | 77 | 1014.0 |
| 20260505150557 | 59 | 189 | 3.0 | 7.0 | 0.00 | 0.00 | 0.00 | 77 | 1014.0 |
| 20260505150105 | 58 | 214 | 4.0 | 8.0 | 0.00 | 0.00 | 0.00 | 77 | 1013.9 |
| 20260505140545 | 56 | 207 | 0.0 | 3.0 | 0.00 | 0.00 | 0.00 | 77 | 1013.4 |
| 20260505130115 | 55 | 57 | 1.0 | 4.0 | 0.00 | 0.00 | 0.00 | 76 | 1012.6 |
| 20260505124601 | 55 | 303 | 2.0 | 4.0 | 0.00 | 0.00 | 0.00 | 76 | 1012.5 |
| 20260505124058 | 55 | 114 | 0.0 | 3.0 | 0.00 | 0.00 | 0.00 | 76 | 1012.5 |
| 20260505123557 | 55 | 111 | 1.0 | 3.0 | 0.00 | 0.00 | 0.00 | 76 | 1012.4 |
| 20260505123102 | 55 | 293 | 0.0 | 3.0 | 0.00 | 0.00 | 0.00 | 76 | 1012.3 |
| 20260505122555 | 55 | 281 | 0.0 | 3.0 | 0.00 | 0.00 | 0.00 | 76 | 1012.2 |
| 20260505122054 | 55 | 60 | 0.0 | 5.0 | 0.00 | 0.00 | 0.00 | 76 | 1012.1 |
| 20260505121556 | 55 | 156 | 0.0 | 5.0 | 0.00 | 0.00 | 0.00 | 76 | 1012.1 |
| 20260505121053 | 55 | 47 | 2.0 | 5.0 | 0.00 | 0.00 | 0.00 | 76 | 1012.0 |
| 20260505120546 | 55 | 51 | 1.0 | 3.0 | 0.00 | 0.00 | 0.00 | 75 | 1012.0 |
| 20260505120049 | 55 | 14 | 0.0 | 4.0 | 0.00 | 0.00 | 0.00 | 75 | 1012.1 |
| 20260505115545 | 55 | 295 | 2.0 | 4.0 | 0.00 | 0.00 | 0.00 | 75 | 1012.0 |
| 20260505115044 | 56 | 354 | 1.0 | 3.0 | 0.00 | 0.00 | 0.00 | 74 | 1011.9 |
| 20260505114543 | 56 | 334 | 0.0 | 2.0 | 0.00 | 0.00 | 0.00 | 74 | 1011.8 |
| 20260505114042 | 56 | 334 | 0.0 | 2.0 | 0.00 | 0.00 | 0.00 | 74 | 1011.9 |
| 20260505113541 | 56 | 334 | 0.0 | 2.0 | 0.00 | 0.00 | 0.00 | 74 | 1011.8 |
| 20260505113042 | 56 | 334 | 0.0 | 2.0 | 0.00 | 0.00 | 0.00 | 73 | 1011.8 |
| 20260505112540 | 56 | 334 | 0.0 | 2.0 | 0.00 | 0.00 | 0.00 | 73 | 1011.7 |
| 20260505112039 | 57 | 334 | 0.0 | 1.0 | 0.00 | 0.00 | 0.00 | 73 | 1011.7 |
| 20260505111539 | 57 | 334 | 0.0 | 3.0 | 0.00 | 0.00 | 0.00 | 73 | 1011.7 |
| 20260505111037 | 57 | 334 | 2.0 | 3.0 | 0.00 | 0.00 | 0.00 | 73 | 1011.6 |
| 20260505110535 | 57 | 288 | 1.0 | 3.0 | 0.00 | 0.00 | 0.00 | 74 | 1011.5 |
| 20260505102012 | 58 | 10 | 0.0 | 2.0 | 0.00 | 0.00 | 0.00 | 68 | 1011.0 |
| 20260505101510 | 58 | 10 | 1.0 | 2.0 | 0.00 | 0.00 | 0.00 | 68 | 1011.0 |
| 20260505101009 | 58 | 10 | 0.0 | 2.0 | 0.00 | 0.00 | 0.00 | 68 | 1011.0 |
| 20260505100508 | 58 | 10 | 0.0 | 2.0 | 0.00 | 0.00 | 0.00 | 68 | 1010.9 |
| 20260505100014 | 58 | 10 | 1.0 | 2.0 | 0.00 | 0.00 | 0.00 | 68 | 1010.8 |
| 20260505095508 | 59 | 10 | 0.0 | 2.0 | 0.00 | 0.00 | 0.00 | 68 | 1010.7 |
| 20260505095004 | 59 | 10 | 1.0 | 2.0 | 0.00 | 0.00 | 0.00 | 68 | 1010.6 |
| 20260505094503 | 59 | 10 | 1.0 | 2.0 | 0.00 | 0.00 | 0.00 | 67 | 1010.4 |
| 20260505094004 | 59 | 317 | 0.0 | 2.0 | 0.00 | 0.00 | 0.00 | 66 | 1010.4 |
| 20260505093501 | 59 | 10 | 0.0 | 2.0 | 0.00 | 0.00 | 0.00 | 66 | 1010.4 |
| 20260505093002 | 60 | 43 | 0.0 | 2.0 | 0.00 | 0.00 | 0.00 | 66 | 1010.4 |
| 20260505092559 | 60 | 43 | 0.0 | 3.0 | 0.00 | 0.00 | 0.00 | 65 | 1010.3 |
| 20260505092058 | 60 | 43 | 1.0 | 3.0 | 0.00 | 0.00 | 0.00 | 65 | 1010.3 |
| 20260505091606 | 60 | 43 | 1.0 | 3.0 | 0.00 | 0.00 | 0.00 | 64 | 1010.2 |
| 20260505091101 | 60 | 16 | 0.0 | 3.0 | 0.00 | 0.00 | 0.00 | 64 | 1010.2 |
| 20260505090556 | 60 | 16 | 1.0 | 3.0 | 0.00 | 0.00 | 0.00 | 64 | 1010.1 |
| 20260505090104 | 60 | 42 | 1.0 | 3.0 | 0.00 | 0.00 | 0.00 | 64 | 1010.1 |
| 20260505085554 | 60 | 41 | 1.0 | 3.0 | 0.00 | 0.00 | 0.00 | 63 | 1010.1 |
| 20260505085054 | 61 | 40 | 1.0 | 3.0 | 0.00 | 0.00 | 0.00 | 62 | 1010.1 |
| 20260505084556 | 61 | 19 | 1.0 | 3.0 | 0.00 | 0.00 | 0.00 | 61 | 1010.0 |
| 20260505084051 | 61 | 29 | 1.0 | 4.0 | 0.00 | 0.00 | 0.00 | 61 | 1009.9 |
| 20260505083553 | 61 | 29 | 1.0 | 4.0 | 0.00 | 0.00 | 0.00 | 60 | 1009.9 |
| 20260505083059 | 61 | 28 | 3.0 | 4.0 | 0.00 | 0.00 | 0.00 | 60 | 1009.9 |
| 20260505082550 | 61 | 5 | 3.0 | 4.0 | 0.00 | 0.00 | 0.00 | 60 | 1009.9 |
| 20260505082049 | 61 | 27 | 1.0 | 3.0 | 0.00 | 0.00 | 0.00 | 59 | 1009.9 |
| 20260505081557 | 62 | 51 | 1.0 | 3.0 | 0.00 | 0.00 | 0.00 | 59 | 1009.9 |
| 20260505081047 | 62 | 46 | 1.0 | 4.0 | 0.00 | 0.00 | 0.00 | 58 | 1009.9 |
| 20260505080550 | 62 | 36 | 2.0 | 4.0 | 0.00 | 0.00 | 0.00 | 58 | 1009.9 |
| 20260505080050 | 62 | 5 | 2.0 | 4.0 | 0.00 | 0.00 | 0.00 | 57 | 1009.8 |
| 20260505075545 | 62 | 353 | 2.0 | 4.0 | 0.00 | 0.00 | 0.00 | 57 | 1009.8 |
| 20260505075046 | 62 | 355 | 3.0 | 4.0 | 0.00 | 0.00 | 0.00 | 57 | 1009.8 |
| 20260505074544 | 62 | 16 | 2.0 | 3.0 | 0.00 | 0.00 | 0.00 | 57 | 1009.8 |
| 20260505074046 | 62 | 24 | 1.0 | 3.0 | 0.00 | 0.00 | 0.00 | 56 | 1009.7 |
| 20260505073542 | 62 | 36 | 2.0 | 5.0 | 0.00 | 0.00 | 0.00 | 57 | 1009.5 |
| 20260505073044 | 62 | 17 | 3.0 | 5.0 | 0.00 | 0.00 | 0.00 | 56 | 1009.4 |
| 20260505072540 | 62 | 360 | 2.0 | 4.0 | 0.00 | 0.00 | 0.00 | 56 | 1009.4 |
| 20260505072039 | 63 | 10 | 2.0 | 4.0 | 0.00 | 0.00 | 0.00 | 56 | 1009.3 |
| 20260505071546 | 63 | 34 | 2.0 | 4.0 | 0.00 | 0.00 | 0.00 | 55 | 1009.3 |
| 20260505071037 | 63 | 47 | 3.0 | 4.0 | 0.00 | 0.00 | 0.00 | 55 | 1009.2 |
| 20260505070537 | 63 | 48 | 2.0 | 4.0 | 0.00 | 0.00 | 0.00 | 55 | 1009.1 |
| 20260505070036 | 63 | 58 | 0.0 | 5.0 | 0.00 | 0.00 | 0.00 | 54 | 1009.2 |
| 20260505065536 | 63 | 62 | 3.0 | 5.0 | 0.00 | 0.00 | 0.00 | 54 | 1009.1 |
| 20260505065034 | 64 | 47 | 1.0 | 3.0 | 0.00 | 0.00 | 0.00 | 54 | 1009.0 |
| 20260505064537 | 64 | 39 | 1.0 | 3.0 | 0.00 | 0.00 | 0.00 | 54 | 1009.0 |
| 20260505064035 | 64 | 37 | 1.0 | 3.0 | 0.00 | 0.00 | 0.00 | 54 | 1009.0 |
| 20260505063534 | 64 | 40 | 1.0 | 3.0 | 0.00 | 0.00 | 0.00 | 53 | 1008.9 |
| 20260505063034 | 65 | 336 | 1.0 | 4.0 | 0.00 | 0.00 | 0.00 | 52 | 1008.9 |
| 20260505062536 | 65 | 49 | 2.0 | 4.0 | 0.00 | 0.00 | 0.00 | 53 | 1008.8 |
| 20260505062032 | 65 | 60 | 2.0 | 4.0 | 0.00 | 0.00 | 0.00 | 52 | 1008.8 |
| 20260505061534 | 65 | 62 | 2.0 | 4.0 | 0.00 | 0.00 | 0.00 | 51 | 1008.7 |
| 20260505061032 | 65 | 43 | 2.0 | 4.0 | 0.00 | 0.00 | 0.00 | 51 | 1008.7 |
| 20260505060533 | 65 | 49 | 2.0 | 4.0 | 0.00 | 0.00 | 0.00 | 51 | 1008.7 |
| 20260505060037 | 66 | 23 | 2.0 | 4.0 | 0.00 | 0.00 | 0.00 | 51 | 1008.7 |
| 20260505055532 | 66 | 10 | 2.0 | 5.0 | 0.00 | 0.00 | 0.00 | 50 | 1008.7 |
| 20260505055032 | 66 | 10 | 2.0 | 6.0 | 0.00 | 0.00 | 0.00 | 49 | 1008.7 |
| 20260505054533 | 66 | 37 | 4.0 | 6.0 | 0.00 | 0.00 | 0.00 | 49 | 1008.6 |
| 20260505054032 | 66 | 5 | 2.0 | 4.0 | 0.00 | 0.00 | 0.00 | 49 | 1008.6 |
| 20260505053532 | 66 | 10 | 2.0 | 4.0 | 0.00 | 0.00 | 0.00 | 49 | 1008.6 |
| 20260505053034 | 67 | 349 | 2.0 | 4.0 | 0.00 | 0.00 | 0.00 | 48 | 1008.6 |
| 20260505052530 | 67 | 40 | 3.0 | 4.0 | 0.00 | 0.00 | 0.00 | 47 | 1008.5 |
| 20260505052030 | 67 | 31 | 3.0 | 8.0 | 0.00 | 0.00 | 0.00 | 47 | 1008.5 |
| 20260505051530 | 67 | 44 | 3.0 | 8.0 | 0.00 | 0.00 | 0.00 | 46 | 1008.5 |
| 20260505051030 | 67 | 16 | 3.0 | 5.0 | 0.00 | 0.00 | 0.00 | 47 | 1008.5 |
| 20260505050530 | 67 | 360 | 2.0 | 5.0 | 0.00 | 0.00 | 0.00 | 47 | 1008.4 |
| 20260505041520 | 69 | 5 | 2.0 | 4.0 | 0.00 | 0.00 | 0.00 | 46 | 1008.1 |
| 20260505041020 | 69 | 10 | 2.0 | 4.0 | 0.00 | 0.00 | 0.00 | 45 | 1008.1 |
| 20260505040520 | 69 | 10 | 2.0 | 4.0 | 0.00 | 0.00 | 0.00 | 45 | 1008.0 |
| 20260505040022 | 70 | 360 | 2.0 | 4.0 | 0.00 | 0.00 | 0.00 | 46 | 1008.0 |
| 20260505035522 | 70 | 15 | 2.0 | 4.0 | 0.00 | 0.00 | 0.00 | 45 | 1007.9 |
| 20260505035019 | 71 | 360 | 2.0 | 3.0 | 0.00 | 0.00 | 0.00 | 44 | 1007.9 |
| 20260505034523 | 71 | 360 | 2.0 | 3.0 | 0.00 | 0.00 | 0.00 | 44 | 1007.9 |
| 20260505034019 | 72 | 17 | 1.0 | 4.0 | 0.00 | 0.00 | 0.00 | 45 | 1007.9 |
| 20260505033519 | 72 | 360 | 2.0 | 4.0 | 0.00 | 0.00 | 0.00 | 44 | 1007.8 |
| 20260505033026 | 73 | 341 | 2.0 | 3.0 | 0.00 | 0.00 | 0.00 | 44 | 1007.7 |
| 20260505032519 | 73 | 353 | 1.0 | 3.0 | 0.00 | 0.00 | 0.00 | 43 | 1007.7 |
| 20260505032016 | 74 | 10 | 2.0 | 3.0 | 0.00 | 0.00 | 0.00 | 42 | 1007.6 |
| 20260505031517 | 75 | 353 | 1.0 | 2.0 | 0.00 | 0.00 | 0.00 | 42 | 1007.6 |
| 20260505031017 | 75 | 238 | 1.0 | 2.0 | 0.00 | 0.00 | 0.00 | 40 | 1007.6 |
| 20260505030516 | 76 | 211 | 0.0 | 2.0 | 0.00 | 0.00 | 0.00 | 40 | 1007.6 |
| 20260505030016 | 77 | 211 | 0.0 | 2.0 | 0.00 | 0.00 | 0.00 | 39 | 1007.6 |
| 20260505025516 | 78 | 211 | 0.0 | 1.0 | 0.00 | 0.00 | 0.00 | 37 | 1007.6 |
| 20260505025015 | 78 | 211 | 0.0 | 1.0 | 0.00 | 0.00 | 0.00 | 36 | 1007.6 |
| 20260505024515 | 79 | 211 | 0.0 | 3.0 | 0.00 | 0.00 | 0.00 | 35 | 1007.5 |
| 20260505024015 | 80 | 211 | 0.0 | 3.0 | 0.00 | 0.00 | 0.00 | 32 | 1007.5 |
| 20260505023515 | 81 | 210 | 1.0 | 3.0 | 0.00 | 0.00 | 0.00 | 31 | 1007.5 |
| 20260505023015 | 81 | 210 | 1.0 | 3.0 | 0.00 | 0.00 | 0.00 | 31 | 1007.5 |
| 20260505022516 | 81 | 210 | 1.0 | 3.0 | 0.00 | 0.00 | 0.00 | 31 | 1007.5 |
| 20260505022014 | 81 | 210 | 0.0 | 3.0 | 0.00 | 0.00 | 0.00 | 31 | 1007.6 |
| 20260505021514 | 81 | 210 | 1.0 | 3.0 | 0.00 | 0.00 | 0.00 | 31 | 1007.6 |
| 20260505021014 | 81 | 218 | 2.0 | 4.0 | 0.00 | 0.00 | 0.00 | 31 | 1007.7 |
| 20260505020512 | 81 | 212 | 2.0 | 5.0 | 0.00 | 0.00 | 0.00 | 30 | 1007.7 |
| 20260505020016 | 81 | 214 | 3.0 | 5.0 | 0.00 | 0.00 | 0.00 | 30 | 1007.6 |
| 20260505015511 | 82 | 189 | 2.0 | 5.0 | 0.00 | 0.00 | 0.00 | 29 | 1007.6 |
| 20260505015011 | 82 | 195 | 3.0 | 6.0 | 0.00 | 0.00 | 0.00 | 29 | 1007.7 |
| 20260505014516 | 82 | 217 | 2.0 | 6.0 | 0.00 | 0.00 | 0.00 | 29 | 1007.7 |
| 20260505014014 | 82 | 211 | 2.0 | 6.0 | 0.00 | 0.00 | 0.00 | 31 | 1007.7 |
| 20260505013510 | 82 | 228 | 3.0 | 6.0 | 0.00 | 0.00 | 0.00 | 31 | 1007.7 |
| 20260505013009 | 83 | 195 | 3.0 | 6.0 | 0.00 | 0.00 | 0.00 | 31 | 1007.7 |
| 20260505012511 | 83 | 188 | 4.0 | 6.0 | 0.00 | 0.00 | 0.00 | 32 | 1007.7 |
| 20260505012009 | 83 | 219 | 4.0 | 6.0 | 0.00 | 0.00 | 0.00 | 31 | 1007.7 |
| 20260505011508 | 83 | 224 | 3.0 | 6.0 | 0.00 | 0.00 | 0.00 | 31 | 1007.7 |
| 20260505011007 | 84 | 184 | 2.0 | 6.0 | 0.00 | 0.00 | 0.00 | 30 | 1007.8 |
| 20260505010506 | 83 | 205 | 2.0 | 5.0 | 0.00 | 0.00 | 0.00 | 30 | 1007.9 |
| 20260505010007 | 83 | 214 | 2.0 | 6.0 | 0.00 | 0.00 | 0.00 | 31 | 1007.9 |
| 20260505005505 | 83 | 207 | 4.0 | 6.0 | 0.00 | 0.00 | 0.00 | 29 | 1007.9 |
| 20260505005004 | 84 | 226 | 3.0 | 5.0 | 0.00 | 0.00 | 0.00 | 30 | 1007.9 |
| 20260505004510 | 84 | 203 | 2.0 | 7.0 | 0.00 | 0.00 | 0.00 | 29 | 1007.9 |
| 20260505004001 | 84 | 206 | 3.0 | 7.0 | 0.00 | 0.00 | 0.00 | 30 | 1008.0 |
| 20260505003600 | 84 | 219 | 1.0 | 5.0 | 0.00 | 0.00 | 0.00 | 30 | 1008.0 |
| 20260505003100 | 84 | 232 | 1.0 | 5.0 | 0.00 | 0.00 | 0.00 | 28 | 1007.9 |
| 20260505002602 | 84 | 252 | 1.0 | 5.0 | 0.00 | 0.00 | 0.00 | 28 | 1007.9 |
| 20260505002059 | 84 | 198 | 2.0 | 6.0 | 0.00 | 0.00 | 0.00 | 29 | 1007.9 |
| 20260505001558 | 84 | 200 | 2.0 | 6.0 | 0.00 | 0.00 | 0.00 | 29 | 1007.9 |
| 20260505001055 | 84 | 218 | 1.0 | 5.0 | 0.00 | 0.00 | 0.00 | 29 | 1007.9 |
| 20260505000555 | 84 | 230 | 2.0 | 6.0 | 0.00 | 0.00 | 0.00 | 29 | 1007.9 |
| 20260505000058 | 83 | 292 | 0.0 | 6.0 | 0.00 | 0.00 | 0.00 | 29 | 1008.0 |
| 20260504235553 | 83 | 218 | 2.0 | 8.0 | 0.00 | 0.00 | 0.00 | 29 | 1008.0 |
| 20260504235053 | 83 | 195 | 4.0 | 8.0 | 0.00 | 0.00 | 0.00 | 29 | 1008.0 |
| 20260504234552 | 83 | 199 | 2.0 | 7.0 | 0.00 | 0.00 | 0.00 | 28 | 1008.1 |
| 20260504234051 | 83 | 207 | 2.0 | 7.0 | 0.00 | 0.00 | 0.00 | 29 | 1008.1 |
| 20260504233552 | 83 | 176 | 3.0 | 7.0 | 0.00 | 0.00 | 0.00 | 27 | 1008.1 |
| 20260504233052 | 83 | 193 | 3.0 | 7.0 | 0.00 | 0.00 | 0.00 | 27 | 1008.2 |
| 20260504232551 | 83 | 160 | 3.0 | 7.0 | 0.00 | 0.00 | 0.00 | 28 | 1008.2 |
| 20260504232050 | 83 | 232 | 2.0 | 7.0 | 0.00 | 0.00 | 0.00 | 27 | 1008.2 |
| 20260504231549 | 83 | 212 | 4.0 | 7.0 | 0.00 | 0.00 | 0.00 | 26 | 1008.2 |
| 20260504231049 | 83 | 183 | 2.0 | 4.0 | 0.00 | 0.00 | 0.00 | 27 | 1008.2 |
| 20260504230549 | 83 | 266 | 1.0 | 7.0 | 0.00 | 0.00 | 0.00 | 28 | 1008.3 |
| 20260504230050 | 83 | 203 | 2.0 | 7.0 | 0.00 | 0.00 | 0.00 | 29 | 1008.3 |
| 20260504225546 | 83 | 247 | 2.0 | 5.0 | 0.00 | 0.00 | 0.00 | 33 | 1008.4 |
| 20260504225044 | 82 | 245 | 2.0 | 4.0 | 0.00 | 0.00 | 0.00 | 27 | 1008.4 |
| 20260504224547 | 83 | 212 | 1.0 | 3.0 | 0.00 | 0.00 | 0.00 | 29 | 1008.5 |
| 20260504224043 | 83 | 247 | 1.0 | 6.0 | 0.00 | 0.00 | 0.00 | 30 | 1008.5 |
| 20260504223542 | 82 | 214 | 2.0 | 5.0 | 0.00 | 0.00 | 0.00 | 30 | 1008.5 |
| 20260504223043 | 83 | 224 | 1.0 | 6.0 | 0.00 | 0.00 | 0.00 | 30 | 1008.5 |
| 20260504222545 | 83 | 200 | 2.0 | 7.0 | 0.00 | 0.00 | 0.00 | 30 | 1008.5 |
| 20260504222042 | 83 | 212 | 3.0 | 8.0 | 0.00 | 0.00 | 0.00 | 30 | 1008.6 |
| 20260504221542 | 83 | 213 | 2.0 | 8.0 | 0.00 | 0.00 | 0.00 | 33 | 1008.6 |
| 20260504221040 | 83 | 215 | 3.0 | 7.0 | 0.00 | 0.00 | 0.00 | 32 | 1008.6 |
| 20260504220538 | 82 | 194 | 3.0 | 6.0 | 0.00 | 0.00 | 0.00 | 33 | 1008.6 |
| 20260504220038 | 82 | 192 | 2.0 | 6.0 | 0.00 | 0.00 | 0.00 | 33 | 1008.6 |
| 20260504215537 | 82 | 211 | 3.0 | 6.0 | 0.00 | 0.00 | 0.00 | 34 | 1008.7 |
| 20260504215035 | 82 | 197 | 2.0 | 9.0 | 0.00 | 0.00 | 0.00 | 32 | 1008.7 |
| 20260504214536 | 82 | 210 | 3.0 | 8.0 | 0.00 | 0.00 | 0.00 | 33 | 1008.7 |
| 20260504214036 | 82 | 143 | 2.0 | 8.0 | 0.00 | 0.00 | 0.00 | 33 | 1008.7 |
| 20260504213534 | 81 | 183 | 3.0 | 7.0 | 0.00 | 0.00 | 0.00 | 32 | 1008.8 |
| 20260504213033 | 82 | 155 | 2.0 | 8.0 | 0.00 | 0.00 | 0.00 | 33 | 1008.9 |
| 20260504212532 | 81 | 224 | 3.0 | 6.0 | 0.00 | 0.00 | 0.00 | 33 | 1008.9 |
| 20260504212034 | 82 | 234 | 1.0 | 6.0 | 0.00 | 0.00 | 0.00 | 33 | 1008.9 |
| 20260504211534 | 81 | 286 | 2.0 | 8.0 | 0.00 | 0.00 | 0.00 | 34 | 1009.0 |
| 20260504211031 | 81 | 311 | 3.0 | 8.0 | 0.00 | 0.00 | 0.00 | 35 | 1009.0 |
| 20260504210530 | 81 | 182 | 2.0 | 8.0 | 0.00 | 0.00 | 0.00 | 32 | 1009.1 |
| 20260504210037 | 81 | 208 | 3.0 | 6.0 | 0.00 | 0.00 | 0.00 | 32 | 1009.2 |
| 20260504205529 | 81 | 211 | 2.0 | 6.0 | 0.00 | 0.00 | 0.00 | 32 | 1009.1 |
| 20260504205028 | 81 | 37 | 2.0 | 5.0 | 0.00 | 0.00 | 0.00 | 32 | 1009.2 |
| 20260504204537 | 81 | 214 | 2.0 | 8.0 | 0.00 | 0.00 | 0.00 | 34 | 1009.3 |
| 20260504204027 | 81 | 170 | 2.0 | 8.0 | 0.00 | 0.00 | 0.00 | 33 | 1009.3 |
| 20260504203526 | 81 | 223 | 2.0 | 7.0 | 0.00 | 0.00 | 0.00 | 33 | 1009.3 |
| 20260504203027 | 81 | 166 | 2.0 | 7.0 | 0.00 | 0.00 | 0.00 | 35 | 1009.3 |
| 20260504202525 | 80 | 164 | 2.0 | 7.0 | 0.00 | 0.00 | 0.00 | 35 | 1009.3 |
| 20260504202022 | 80 | 135 | 3.0 | 7.0 | 0.00 | 0.00 | 0.00 | 34 | 1009.3 |
| 20260504201520 | 80 | 203 | 4.0 | 7.0 | 0.00 | 0.00 | 0.00 | 34 | 1009.3 |
| 20260504201020 | 79 | 216 | 4.0 | 7.0 | 0.00 | 0.00 | 0.00 | 34 | 1009.4 |
| 20260504200519 | 79 | 197 | 2.0 | 8.0 | 0.00 | 0.00 | 0.00 | 35 | 1009.4 |
| 20260504200019 | 79 | 245 | 3.0 | 8.0 | 0.00 | 0.00 | 0.00 | 35 | 1009.4 |
| 20260504195517 | 79 | 280 | 3.0 | 8.0 | 0.00 | 0.00 | 0.00 | 34 | 1009.5 |
| 20260504195017 | 79 | 222 | 2.0 | 7.0 | 0.00 | 0.00 | 0.00 | 36 | 1009.5 |
| 20260504194517 | 79 | 176 | 2.0 | 6.0 | 0.00 | 0.00 | 0.00 | 35 | 1009.6 |
| 20260504194016 | 79 | 151 | 2.0 | 9.0 | 0.00 | 0.00 | 0.00 | 35 | 1009.6 |
| 20260504193516 | 79 | 193 | 5.0 | 9.0 | 0.00 | 0.00 | 0.00 | 35 | 1009.5 |